createdAt,value
2022-11-27T00:02:58.476Z,8.90
2022-11-27T00:06:59.638Z,8.60
2022-11-27T00:11:09.777Z,8.20
2022-11-27T00:15:15.929Z,8.70
2022-11-27T00:19:14.127Z,7.50
2022-11-27T00:23:15.255Z,7.10
2022-11-27T00:27:16.334Z,7.70
2022-11-27T00:31:20.885Z,6.90
2022-11-27T00:35:22.271Z,7.20
2022-11-27T00:39:23.443Z,8.10
2022-11-27T00:43:24.670Z,7.30
2022-11-27T00:47:25.762Z,7.10
2022-11-27T00:51:28.327Z,7.30
2022-11-27T00:55:29.518Z,7.30
2022-11-27T00:59:31.085Z,7.90
2022-11-27T01:03:33.412Z,7.80
2022-11-27T01:07:34.770Z,7.70
2022-11-27T01:11:35.990Z,8.00
2022-11-27T01:15:37.078Z,7.90
2022-11-27T01:19:38.270Z,8.30
2022-11-27T01:24:00.022Z,8.00
2022-11-27T01:28:01.277Z,8.30
2022-11-27T01:32:02.668Z,8.00
2022-11-27T01:36:06.106Z,7.60
2022-11-27T01:40:08.559Z,7.90
2022-11-27T01:44:28.584Z,7.20
2022-11-27T01:48:29.896Z,7.10
2022-11-27T01:52:34.912Z,8.00
2022-11-27T01:56:36.930Z,7.90
2022-11-27T02:00:38.690Z,8.20
2022-11-27T02:04:39.952Z,8.90
2022-11-27T02:08:42.103Z,8.80
2022-11-27T02:12:55.905Z,8.50
2022-11-27T02:17:00.878Z,9.20
2022-11-27T02:21:22.560Z,9.00
2022-11-27T02:25:52.084Z,8.60
2022-11-27T02:29:56.867Z,8.70
2022-11-27T02:34:01.918Z,8.50
2022-11-27T02:38:09.860Z,7.60
2022-11-27T02:42:19.525Z,7.50
2022-11-27T02:46:21.726Z,8.70
2022-11-27T02:50:25.217Z,8.80
2022-11-27T02:54:30.780Z,9.70
2022-11-27T02:58:34.042Z,9.20
2022-11-27T03:02:39.082Z,8.30
2022-11-27T03:06:43.909Z,8.30
2022-11-27T03:10:58.254Z,9.00
2022-11-27T03:14:59.537Z,7.00
2022-11-27T03:19:10.141Z,8.00
2022-11-27T03:23:11.416Z,7.30
2022-11-27T03:27:14.708Z,8.90
2022-11-27T03:31:16.345Z,7.20
2022-11-27T03:35:21.294Z,9.40
2022-11-27T03:39:24.081Z,7.50
2022-11-27T03:43:29.099Z,7.10
2022-11-27T03:47:43.017Z,7.60
2022-11-27T03:51:51.120Z,7.10
2022-11-27T03:56:04.311Z,7.10
2022-11-27T04:00:07.657Z,6.80
2022-11-27T04:04:08.991Z,7.00
2022-11-27T04:08:10.327Z,7.00
2022-11-27T04:12:11.562Z,7.10
2022-11-27T04:16:12.895Z,7.10
2022-11-27T04:20:14.843Z,8.20
2022-11-27T04:24:16.305Z,7.80
2022-11-27T04:28:17.760Z,7.00
2022-11-27T04:32:18.814Z,6.30
2022-11-27T04:36:20.003Z,6.90
2022-11-27T04:40:21.333Z,7.90
2022-11-27T04:44:22.811Z,6.90
2022-11-27T04:48:24.145Z,7.30
2022-11-27T04:52:25.299Z,7.70
2022-11-27T04:56:26.639Z,7.40
2022-11-27T05:00:27.777Z,7.10
2022-11-27T05:04:29.420Z,7.30
2022-11-27T05:08:32.279Z,7.50
2022-11-27T05:12:33.478Z,8.00
2022-11-27T05:16:34.905Z,7.70
2022-11-27T05:20:36.143Z,7.30
2022-11-27T05:24:37.646Z,7.00
2022-11-27T05:28:39.027Z,7.40
2022-11-27T05:32:40.099Z,6.60
2022-11-27T05:36:41.701Z,6.10
2022-11-27T05:40:42.879Z,6.10
2022-11-27T05:44:44.100Z,6.60
2022-11-27T05:48:45.367Z,7.30
2022-11-27T05:52:46.703Z,7.00
2022-11-27T05:56:47.792Z,6.30
2022-11-27T06:00:49.005Z,6.70
2022-11-27T06:04:50.264Z,7.10
2022-11-27T06:08:51.635Z,6.50
2022-11-27T06:12:52.895Z,6.10
2022-11-27T06:16:54.218Z,7.00
2022-11-27T06:20:55.474Z,6.80
2022-11-27T06:24:56.725Z,5.90
2022-11-27T06:28:59.531Z,6.80
2022-11-27T06:33:00.796Z,6.90
2022-11-27T06:37:02.056Z,5.60
2022-11-27T06:41:09.328Z,7.00
2022-11-27T06:45:11.031Z,5.70
2022-11-27T06:49:12.211Z,6.50
2022-11-27T06:53:13.436Z,5.70
2022-11-27T06:57:14.817Z,4.80
2022-11-27T07:01:17.043Z,6.00
2022-11-27T07:05:18.409Z,6.70
2022-11-27T07:09:19.774Z,6.70
2022-11-27T07:13:21.106Z,6.00
2022-11-27T07:17:22.331Z,4.90
2022-11-27T07:21:24.421Z,5.00
2022-11-27T07:25:25.716Z,6.20
2022-11-27T07:29:26.766Z,5.60
2022-11-27T07:33:27.884Z,6.70
2022-11-27T07:37:32.955Z,7.20
2022-11-27T07:41:34.434Z,6.90
2022-11-27T07:45:35.667Z,5.40
2022-11-27T07:49:36.784Z,5.90
2022-11-27T07:53:39.705Z,6.20
2022-11-27T07:57:41.890Z,5.20
2022-11-27T08:01:44.358Z,5.50
2022-11-27T08:05:45.803Z,5.00
2022-11-27T08:09:47.013Z,5.40
2022-11-27T08:13:49.569Z,5.90
2022-11-27T08:17:50.848Z,6.80
2022-11-27T08:21:52.306Z,5.50
2022-11-27T08:25:53.433Z,6.20
2022-11-27T08:29:54.677Z,6.00
2022-11-27T08:33:55.728Z,6.70
2022-11-27T08:37:56.876Z,6.90
2022-11-27T08:41:58.237Z,6.10
2022-11-27T08:45:59.713Z,6.40
2022-11-27T08:50:01.057Z,6.60
2022-11-27T08:54:02.664Z,6.30
2022-11-27T08:58:04.425Z,6.30
2022-11-27T09:02:06.027Z,6.80
2022-11-27T09:06:09.275Z,7.90
2022-11-27T09:10:10.826Z,7.60
2022-11-27T09:14:12.248Z,6.70
2022-11-27T09:18:13.290Z,6.20
2022-11-27T09:22:14.498Z,7.50
2022-11-27T09:26:16.702Z,8.10
2022-11-27T09:30:18.203Z,8.10
2022-11-27T09:34:19.775Z,7.10
2022-11-27T09:38:21.316Z,6.50
2022-11-27T09:42:29.171Z,7.10
2022-11-27T09:46:36.773Z,7.90
2022-11-27T09:50:42.007Z,5.90
2022-11-27T09:54:56.666Z,6.90
2022-11-27T09:58:59.822Z,7.50
2022-11-27T10:03:01.182Z,8.50
2022-11-27T10:07:12.514Z,7.10
2022-11-27T10:11:23.486Z,6.40
2022-11-27T10:15:49.667Z,7.20
2022-11-27T10:19:54.729Z,6.20
2022-11-27T10:24:05.284Z,6.50
2022-11-27T10:28:25.335Z,6.90
2022-11-27T10:32:54.676Z,6.90
2022-11-27T10:36:42.973Z,6.80
2022-11-27T10:41:09.808Z,6.50
2022-11-27T10:45:33.923Z,7.60
2022-11-27T10:49:38.708Z,6.60
2022-11-27T10:53:42.612Z,7.20
2022-11-27T10:58:02.394Z,7.30
2022-11-27T11:02:05.060Z,8.20
2022-11-27T11:06:20.669Z,7.90
2022-11-27T11:10:28.631Z,7.30
2022-11-27T11:14:29.799Z,8.20
2022-11-27T11:18:34.016Z,8.60
2022-11-27T11:22:35.173Z,7.50
2022-11-27T11:26:45.881Z,8.40
2022-11-27T11:30:59.764Z,8.10
2022-11-27T11:35:04.668Z,8.00
2022-11-27T11:39:06.475Z,7.60
2022-11-27T11:43:23.631Z,8.90
2022-11-27T11:47:27.304Z,9.30
2022-11-27T11:51:58.002Z,11.00
2022-11-27T11:56:19.484Z,8.80
2022-11-27T12:00:28.078Z,9.80
2022-11-27T12:04:54.148Z,9.90
2022-11-27T12:09:11.192Z,9.60
2022-11-27T12:13:31.689Z,10.00
2022-11-27T12:17:46.482Z,10.50
2022-11-27T12:22:08.172Z,10.40
2022-11-27T12:26:31.511Z,9.70
2022-11-27T12:30:57.885Z,10.80
2022-11-27T12:35:21.073Z,11.30
2022-11-27T12:39:34.419Z,10.80
2022-11-27T12:43:42.458Z,10.90
2022-11-27T12:47:47.519Z,10.70
2022-11-27T12:52:01.640Z,10.70
2022-11-27T12:56:20.377Z,8.60
2022-11-27T13:00:24.490Z,10.50
2022-11-27T13:04:42.060Z,10.20
2022-11-27T13:08:56.413Z,9.70
2022-11-27T13:13:09.740Z,10.50
2022-11-27T13:17:15.975Z,7.60
2022-11-27T13:21:22.183Z,8.60
2022-11-27T13:25:24.551Z,8.90
2022-11-27T13:29:32.508Z,9.30
2022-11-27T13:33:40.420Z,10.40
2022-11-27T13:37:41.761Z,8.30
2022-11-27T13:41:43.416Z,8.60
2022-11-27T13:45:44.728Z,9.40
2022-11-27T13:49:49.701Z,8.10
2022-11-27T13:53:51.395Z,9.50
2022-11-27T13:57:54.644Z,9.30
2022-11-27T14:01:59.076Z,10.30
2022-11-27T14:06:00.358Z,10.20
2022-11-27T14:10:08.073Z,10.50
2022-11-27T14:14:24.556Z,10.20
2022-11-27T14:18:27.691Z,9.00
2022-11-27T14:23:09.885Z,7.40
2022-11-27T14:26:47.946Z,7.10
2022-11-27T14:30:51.656Z,7.70
2022-11-27T14:34:53.102Z,8.60
2022-11-27T14:38:54.367Z,9.20
2022-11-27T14:42:59.298Z,9.70
2022-11-27T14:47:03.109Z,10.20
2022-11-27T14:51:04.476Z,8.90
2022-11-27T14:55:09.689Z,8.60
2022-11-27T14:59:17.402Z,9.20
2022-11-27T15:03:18.972Z,9.20
2022-11-27T15:07:24.525Z,8.70
2022-11-27T15:11:54.042Z,8.20
2022-11-27T15:15:34.352Z,7.90
2022-11-27T15:19:36.836Z,7.80
2022-11-27T15:23:41.837Z,7.80
2022-11-27T15:27:46.432Z,8.10
2022-11-27T15:31:52.029Z,8.20
2022-11-27T15:35:55.206Z,7.80
2022-11-27T15:39:58.549Z,8.50
2022-11-27T15:43:59.666Z,8.60
2022-11-27T15:48:02.203Z,8.80
2022-11-27T15:52:03.669Z,9.40
2022-11-27T15:56:05.985Z,8.70
2022-11-27T16:00:11.220Z,8.70
2022-11-27T16:04:12.488Z,8.30
2022-11-27T16:08:13.843Z,8.50
2022-11-27T16:12:15.002Z,8.10
2022-11-27T16:16:16.368Z,7.90
2022-11-27T16:20:17.897Z,7.80
2022-11-27T16:24:19.240Z,6.40
2022-11-27T16:28:20.313Z,7.50
2022-11-27T16:32:21.448Z,7.90
2022-11-27T16:36:23.775Z,8.50
2022-11-27T16:40:24.943Z,7.80
2022-11-27T16:44:26.215Z,7.40
2022-11-27T16:48:27.647Z,7.20
2022-11-27T16:52:28.948Z,6.90
2022-11-27T16:56:32.051Z,7.10
2022-11-27T17:00:33.239Z,7.30
2022-11-27T17:04:34.685Z,8.00
2022-11-27T17:08:36.470Z,7.70
2022-11-27T17:12:37.678Z,7.60
2022-11-27T17:16:40.763Z,7.90
2022-11-27T17:20:42.683Z,8.50
2022-11-27T17:24:44.130Z,8.40
2022-11-27T17:28:45.817Z,9.20
2022-11-27T17:32:46.876Z,9.80
2022-11-27T17:36:49.826Z,8.80
2022-11-27T17:40:51.135Z,8.90
2022-11-27T17:44:52.263Z,8.90
2022-11-27T17:48:55.294Z,7.00
2022-11-27T17:52:56.347Z,8.10
2022-11-27T17:56:57.645Z,8.20
2022-11-27T18:00:59.549Z,8.00
2022-11-27T18:05:00.827Z,7.40
2022-11-27T18:09:03.095Z,7.30
2022-11-27T18:13:04.315Z,7.10
2022-11-27T18:17:06.658Z,8.60
2022-11-27T18:21:15.322Z,7.00
2022-11-27T18:25:13.919Z,7.30
2022-11-27T18:29:15.169Z,7.10
2022-11-27T18:33:16.398Z,7.20
2022-11-27T18:37:17.807Z,7.10
2022-11-27T18:41:21.411Z,7.10
2022-11-27T18:45:33.479Z,7.00
2022-11-27T18:49:25.894Z,7.10
2022-11-27T18:53:27.091Z,6.40
2022-11-27T18:57:28.517Z,6.60
2022-11-27T19:01:38.129Z,6.50
2022-11-27T19:05:35.831Z,6.60
2022-11-27T19:09:37.183Z,7.20
2022-11-27T19:13:39.403Z,7.40
2022-11-27T19:17:40.552Z,7.10
2022-11-27T19:21:41.804Z,7.00
2022-11-27T19:25:44.053Z,7.00
2022-11-27T19:29:45.846Z,7.30
2022-11-27T19:33:51.803Z,6.90
2022-11-27T19:37:53.090Z,6.80
2022-11-27T19:41:54.417Z,7.00
2022-11-27T19:45:56.099Z,7.00
2022-11-27T19:49:57.297Z,6.50
2022-11-27T19:54:01.207Z,5.60
2022-11-27T19:58:03.573Z,6.20
2022-11-27T20:02:05.325Z,6.80
2022-11-27T20:06:10.912Z,6.70
2022-11-27T20:10:12.262Z,7.00
2022-11-27T20:14:14.187Z,7.50
2022-11-27T20:18:15.552Z,8.60
2022-11-27T20:22:17.080Z,8.20
2022-11-27T20:26:21.940Z,8.80
2022-11-27T20:30:23.440Z,7.20
2022-11-27T20:34:26.098Z,6.40
2022-11-27T20:38:27.517Z,6.80
2022-11-27T20:42:28.714Z,7.30
2022-11-27T20:46:32.086Z,7.00
2022-11-27T20:50:34.638Z,7.20
2022-11-27T20:54:36.478Z,6.50
2022-11-27T20:58:39.401Z,7.30
2022-11-27T21:02:41.132Z,7.70
2022-11-27T21:06:44.243Z,7.70
2022-11-27T21:10:45.833Z,7.90
2022-11-27T21:14:47.341Z,7.10
2022-11-27T21:18:54.288Z,7.80
2022-11-27T21:22:55.730Z,7.60
2022-11-27T21:26:57.392Z,7.80
2022-11-27T21:31:16.534Z,7.40
2022-11-27T21:35:17.890Z,6.90
2022-11-27T21:39:20.616Z,6.90
2022-11-27T21:43:23.023Z,6.70
2022-11-27T21:47:24.486Z,7.00
2022-11-27T21:51:27.262Z,7.30
2022-11-27T21:55:29.032Z,7.50
2022-11-27T21:59:30.113Z,8.40
2022-11-27T22:03:32.281Z,8.10
2022-11-27T22:07:34.609Z,6.40
2022-11-27T22:11:36.318Z,6.50
2022-11-27T22:15:37.607Z,6.40
2022-11-27T22:19:40.591Z,6.40
2022-11-27T22:23:42.250Z,6.50
2022-11-27T22:27:43.545Z,7.00
2022-11-27T22:31:44.663Z,7.20
2022-11-27T22:35:45.751Z,6.10
2022-11-27T22:39:47.237Z,6.90
2022-11-27T22:43:48.896Z,7.40
2022-11-27T22:47:50.105Z,6.10
2022-11-27T22:51:51.183Z,6.50
2022-11-27T22:55:52.530Z,6.50
2022-11-27T22:59:53.734Z,6.20
2022-11-27T23:03:55.233Z,6.50
2022-11-27T23:07:56.608Z,6.60
2022-11-27T23:11:58.382Z,6.80
2022-11-27T23:16:07.475Z,6.20
2022-11-27T23:20:09.246Z,6.50
2022-11-27T23:24:14.626Z,6.20
2022-11-27T23:28:15.964Z,6.10
2022-11-27T23:32:17.184Z,6.30
2022-11-27T23:36:18.353Z,6.60
2022-11-27T23:40:19.962Z,6.00
2022-11-27T23:44:21.320Z,6.10
2022-11-27T23:48:22.358Z,6.60
2022-11-27T23:52:23.724Z,6.30
2022-11-27T23:56:27.922Z,5.90
